• Join FlightAware (Why Join?)
  • Login
  • US Flag 
10:47PM EDT


 

Airport Tracker/Info


-or-


 

Live Flight TrackerFlight Track Log ✈ AWI3778 ✈ 05-Aug-2013 ✈ KBTV - KPHL

Flight Track Log - Related Links

Times and Time Zones

All times are in EDT time to prevent confusion due to time zone crossing. See the AWI3778 flight status page for this flight to view local times or setup timezone preferences in your user account.

Time Position Orientation Groundspeed Altitude Reporting Facility
EDT Latitude Longitude Course Direction KTS MPH feet Rate Location/Type
01:34PM 44.4811 -73.2750 234° Southwest 184 212 5,600  Level Boston Center
01:35PM 44.0758 -73.2964 196° South  Level FlightAware Approximate
01:35PM 44.4061 -73.2972 192° South 223 257 7,800  Level Boston Center
01:36PM 43.9783 -73.3354 196° South  Level FlightAware Approximate
01:36PM 44.3289 -73.3253 195° South 295 339 10,300  Level Boston Center
01:37PM 43.8807 -73.3738 195° South  Level FlightAware Approximate
01:37PM 44.2469 -73.3792 205° Southwest 325 374 11,700  Level Boston Center
01:38PM 43.7827 -73.4100 195° South  Level FlightAware Approximate
01:38PM 44.1611 -73.4472 210° Southwest 350 403 13,200  Level Boston Center
01:39PM 44.0686 -73.5208 210° Southwest 382 440 14,700 1,440 Climbing Boston Center
01:40PM 43.9742 -73.5942 209° Southwest 387 445 16,200 1,680 Climbing Boston Center
01:41PM 43.8797 -73.6700 210° Southwest 392 451 18,100 1,800 Climbing Boston Center
01:42PM 43.7850 -73.7428 209° Southwest 392 451 19,900 1,680 Climbing Boston Center
01:43PM 43.6819 -73.8208 209° Southwest 392 451 21,500 1,620 Climbing Boston Center
01:44PM 43.5894 -73.8992 212° Southwest 392 451 23,100 1,260 Climbing Boston Center
01:45PM 43.4947 -73.9683 208° Southwest 392 451 24,100 480 Climbing Boston Center
01:46PM 43.3958 -74.0431 209° Southwest 398 458 24,100 -60 Level Boston Center
01:47PM 43.2903 -74.1231 209° Southwest 412 474 24,000 -60 Descending Boston Center
01:48PM 43.1808 -74.2083 210° Southwest 438 504 24,000  Level Boston Center
01:49PM 43.0711 -74.2933 210° Southwest 451 519 24,000  Level Boston Center
01:50PM 42.9569 -74.3806 209° Southwest 456 525 24,000  Level Boston Center
01:51PM 42.8450 -74.4619 208° Southwest 461 531 24,000  Level Boston Center
01:52PM 42.7331 -74.5461 209° Southwest 461 531 24,000  Level Boston Center
01:53PM 42.6211 -74.6325 210° Southwest 467 537 24,000  Level Boston Center
01:54PM 42.5089 -74.7186 210° Southwest 467 537 24,000  Level Boston Center
01:55PM 42.3967 -74.7989 208° Southwest 467 537 24,000 -780 Level Boston Center
01:56PM 42.2886 -74.8819 210° Southwest 461 531 22,500 -1,440 Descending Boston Center
01:57PM 42.1269 -75.0017 209° Southwest 455 524 20,300 -1,320 Descending New York Center
01:58PM 42.0261 -75.0872 212° Southwest 441 507 19,100 -660 Descending New York Center
01:59PM 41.9314 -75.1675 212° Southwest 416 479 19,000 -60 Descending New York Center
02:00PM 41.8306 -75.2469 210° Southwest 395 455 19,000 -360 Level New York Center
02:01PM 41.7383 -75.3186 210° Southwest 390 449 18,300 -1,320 Descending New York Center
02:02PM 41.6589 -75.3853 212° Southwest 390 449 16,400 -1,980 Descending New York Center
02:03PM 41.5750 -75.4544 212° Southwest 370 426 14,500 -2,040 Descending New York Center
02:04PM 41.4803 -75.5281 210° Southwest 370 426 12,500 -1,260 Descending New York Center
02:05PM 41.3964 -75.5969 212° Southwest 364 419 12,000 -300 Descending New York Center
02:06PM 41.3189 -75.6547 209° Southwest 364 419 12,000  Level New York Center
02:07PM 41.2175 -75.6917 195° South 347 399 12,000 -120 Level New York Center
02:08PM 41.1258 -75.6878 178° South 356 410 11,800 -660 Descending New York Center
02:09PM 41.0228 -75.6636 170° South 368 423 10,800 -900 Descending New York Center
02:10PM 40.9181 -75.6233 164° South 386 444 10,000 -420 Descending New York Center
02:11PM 40.8239 -75.5836 162° South 375 432 10,000  Level New York Center
02:12PM 40.7175 -75.5406 163° South 370 426 10,000  Level New York Center
02:13PM 40.6211 -75.5011 163° South 364 419 10,000  Level New York Center
02:14PM 40.5286 -75.4647 163° South 358 412 10,000  Level New York Center
02:15PM 40.4467 -75.4292 162° South 331 381 10,000 -660 Level New York Center
02:16PM 40.3736 -75.3778 152° Southeast 301 346 8,800 -1,380 Descending New York Center
02:17PM 40.3050 -75.3242 149° Southeast 289 333 7,300 -1,380 Descending New York Center
02:18PM 40.2483 -75.2797 149° Southeast 277 319 6,100 -660 Descending New York Center
02:19PM 40.1772 -75.2289 151° Southeast 282 325 6,000 -60 Descending New York Center
02:20PM 40.1167 -75.1833 150° Southeast 273 314 6,000  Level Philadelphia TRACON
02:21PM 40.0500 -75.1333 150° Southeast 237 273 6,000 -60 Level Philadelphia TRACON
02:22PM 40.0000 -75.0833 143° Southeast 211 243 5,900 -780 Descending Philadelphia TRACON
02:23PM 40.0000 -75.0167 90° East 222 255 4,500 -1,020 Descending Philadelphia TRACON
02:24PM 39.9833 -74.9500 108° East 208 239 3,900 -900 Descending Philadelphia TRACON
02:25PM 39.9500 -75.0000 229° Southwest 202 232 2,900 -840 Descending Philadelphia TRACON
02:26PM 39.9167 -75.0500 229° Southwest 180 207 2,400 -660 Descending Philadelphia TRACON
02:27PM 39.9000 -75.1167 252° West 179 206 1,600 -840 Descending Philadelphia TRACON
02:28PM 39.9000 -75.1667 270° West 141 162 800 -900 Descending Philadelphia TRACON